createdAt,value
2022-12-31T00:01:25.127Z,72.31
2022-12-31T00:03:38.688Z,72.33
2022-12-31T00:05:50.952Z,72.29
2022-12-31T00:08:03.040Z,72.31
2022-12-31T00:10:14.833Z,72.12
2022-12-31T00:12:26.465Z,72.19
2022-12-31T00:14:38.616Z,71.91
2022-12-31T00:16:50.271Z,72.07
2022-12-31T00:19:03.321Z,72.07
2022-12-31T00:21:17.066Z,72.00
2022-12-31T00:23:28.822Z,72.05
2022-12-31T00:25:40.374Z,71.98
2022-12-31T00:27:51.981Z,71.90
2022-12-31T00:30:05.711Z,71.98
2022-12-31T00:32:17.348Z,71.92
2022-12-31T00:34:29.337Z,71.99
2022-12-31T00:36:42.791Z,72.38
2022-12-31T00:38:56.535Z,72.63
2022-12-31T00:41:09.130Z,72.78
2022-12-31T00:43:21.651Z,73.11
2022-12-31T00:45:33.506Z,73.14
2022-12-31T00:47:45.601Z,73.15
2022-12-31T00:49:57.392Z,73.46
2022-12-31T00:52:09.283Z,73.43
2022-12-31T00:54:20.898Z,73.44
2022-12-31T00:56:33.067Z,73.38
2022-12-31T00:58:45.782Z,73.42
2022-12-31T01:00:57.680Z,73.29
2022-12-31T01:03:10.169Z,73.39
2022-12-31T01:05:22.175Z,73.21
2022-12-31T01:07:33.860Z,73.22
2022-12-31T01:09:45.855Z,73.16
2022-12-31T01:11:57.952Z,73.14
2022-12-31T01:14:17.218Z,73.20
2022-12-31T01:16:31.158Z,73.05
2022-12-31T01:18:43.055Z,73.15
2022-12-31T01:20:54.841Z,73.26
2022-12-31T01:23:08.062Z,73.30
2022-12-31T01:25:20.171Z,73.15
2022-12-31T01:27:32.074Z,73.03
2022-12-31T01:29:43.740Z,72.98
2022-12-31T01:31:55.697Z,72.89
2022-12-31T01:34:08.754Z,72.90
2022-12-31T01:36:26.772Z,72.90
2022-12-31T01:38:39.714Z,72.67
2022-12-31T01:40:51.713Z,72.69
2022-12-31T01:43:06.151Z,72.59
2022-12-31T01:45:18.044Z,72.57
2022-12-31T01:47:43.661Z,72.59
2022-12-31T01:50:03.317Z,72.64
2022-12-31T01:52:21.193Z,72.55
2022-12-31T01:54:39.500Z,72.53
2022-12-31T01:56:53.765Z,72.33
2022-12-31T01:59:10.403Z,72.54
2022-12-31T02:01:28.047Z,72.30
2022-12-31T02:03:40.496Z,72.40
2022-12-31T02:05:59.858Z,72.57
2022-12-31T02:08:12.472Z,72.73
2022-12-31T02:10:24.572Z,72.53
2022-12-31T02:12:36.661Z,72.58
2022-12-31T02:14:53.284Z,72.62
2022-12-31T02:17:26.565Z,72.55
2022-12-31T02:19:47.852Z,72.55
2022-12-31T02:22:05.711Z,72.44
2022-12-31T02:24:26.789Z,72.47
2022-12-31T02:27:00.003Z,72.61
2022-12-31T02:29:24.184Z,72.32
2022-12-31T02:31:43.487Z,72.45
2022-12-31T02:34:07.067Z,72.48
2022-12-31T02:36:25.556Z,72.33
2022-12-31T02:38:41.984Z,72.63
2022-12-31T02:40:54.984Z,72.66
2022-12-31T02:43:07.388Z,72.59
2022-12-31T02:45:27.471Z,72.86
2022-12-31T02:48:10.903Z,72.69
2022-12-31T02:50:22.895Z,72.91
2022-12-31T02:52:54.295Z,72.78
2022-12-31T02:55:20.374Z,72.93
2022-12-31T02:57:41.182Z,72.97
2022-12-31T03:00:15.184Z,73.12
2022-12-31T03:02:31.207Z,73.03
2022-12-31T03:04:51.667Z,73.24
2022-12-31T03:07:12.874Z,73.26
2022-12-31T03:09:24.766Z,73.28
2022-12-31T03:11:55.528Z,73.32
2022-12-31T03:14:07.598Z,73.47
2022-12-31T03:16:19.119Z,73.52
2022-12-31T03:19:00.467Z,73.34
2022-12-31T03:21:32.432Z,73.48
2022-12-31T03:24:03.681Z,73.65
2022-12-31T03:26:15.979Z,73.65
2022-12-31T03:28:30.136Z,73.81
2022-12-31T03:30:44.586Z,73.67
2022-12-31T03:32:56.886Z,73.71
2022-12-31T03:35:09.790Z,73.82
2022-12-31T03:37:21.988Z,73.85
2022-12-31T03:39:34.092Z,73.98
2022-12-31T03:41:45.909Z,74.04
2022-12-31T03:43:57.795Z,74.16
2022-12-31T03:46:09.695Z,74.34
2022-12-31T03:48:23.405Z,74.37
2022-12-31T03:50:35.909Z,74.27
2022-12-31T03:52:47.796Z,74.30
2022-12-31T03:54:59.691Z,74.44
2022-12-31T03:57:11.484Z,74.38
2022-12-31T03:59:23.267Z,74.37
2022-12-31T04:01:35.073Z,74.35
2022-12-31T04:03:47.363Z,74.59
2022-12-31T04:05:59.257Z,74.59
2022-12-31T04:08:10.877Z,74.42
2022-12-31T04:10:23.248Z,74.63
2022-12-31T04:12:35.360Z,74.56
2022-12-31T04:14:47.330Z,74.75
2022-12-31T04:16:59.021Z,74.50
2022-12-31T04:19:11.480Z,74.75
2022-12-31T04:21:23.115Z,74.68
2022-12-31T04:23:35.217Z,74.64
2022-12-31T04:25:47.103Z,74.67
2022-12-31T04:27:59.205Z,74.70
2022-12-31T04:30:13.129Z,74.77
2022-12-31T04:32:25.341Z,74.91
2022-12-31T04:34:37.843Z,74.85
2022-12-31T04:36:49.758Z,74.83
2022-12-31T04:39:02.276Z,74.84
2022-12-31T04:41:17.332Z,75.06
2022-12-31T04:43:29.428Z,75.00
2022-12-31T04:45:41.240Z,75.02
2022-12-31T04:47:53.506Z,74.94
2022-12-31T04:50:06.018Z,75.08
2022-12-31T04:52:17.698Z,74.95
2022-12-31T04:54:29.487Z,75.24
2022-12-31T04:56:41.174Z,75.26
2022-12-31T04:58:52.863Z,75.18
2022-12-31T05:01:06.055Z,75.49
2022-12-31T05:03:19.493Z,75.38
2022-12-31T05:05:31.404Z,75.57
2022-12-31T05:07:43.603Z,75.71
2022-12-31T05:09:55.905Z,75.55
2022-12-31T05:12:07.697Z,75.55
2022-12-31T05:14:19.287Z,75.65
2022-12-31T05:16:30.894Z,75.52
2022-12-31T05:18:42.763Z,75.58
2022-12-31T05:20:54.552Z,75.77
2022-12-31T05:23:07.368Z,75.72
2022-12-31T05:25:19.056Z,75.81
2022-12-31T05:27:31.427Z,75.64
2022-12-31T05:29:43.346Z,75.96
2022-12-31T05:31:55.042Z,75.89
2022-12-31T05:34:06.618Z,75.99
2022-12-31T05:36:18.716Z,75.95
2022-12-31T05:38:30.611Z,76.02
2022-12-31T05:40:42.611Z,76.17
2022-12-31T05:42:54.802Z,76.25
2022-12-31T05:45:07.517Z,76.44
2022-12-31T05:47:19.622Z,76.34
2022-12-31T05:49:31.508Z,76.39
2022-12-31T05:51:43.427Z,76.27
2022-12-31T05:53:55.307Z,76.37
2022-12-31T05:56:07.488Z,76.61
2022-12-31T05:58:19.481Z,76.63
2022-12-31T06:00:31.167Z,76.73
2022-12-31T06:02:43.145Z,76.79
2022-12-31T06:04:55.472Z,76.78
2022-12-31T06:07:07.255Z,76.82
2022-12-31T06:09:19.554Z,77.03
2022-12-31T06:11:31.348Z,76.82
2022-12-31T06:13:44.367Z,76.75
2022-12-31T06:15:56.715Z,76.97
2022-12-31T06:18:09.071Z,77.18
2022-12-31T06:20:21.171Z,77.02
2022-12-31T06:22:33.060Z,77.15
2022-12-31T06:24:44.856Z,77.26
2022-12-31T06:26:56.506Z,77.12
2022-12-31T06:29:09.082Z,76.99
2022-12-31T06:31:20.750Z,77.00
2022-12-31T06:33:33.959Z,77.13
2022-12-31T06:35:45.745Z,77.04
2022-12-31T06:37:57.434Z,77.13
2022-12-31T06:40:10.171Z,77.10
2022-12-31T06:42:22.242Z,77.00
2022-12-31T06:44:34.239Z,77.21
2022-12-31T06:46:46.048Z,76.94
2022-12-31T06:48:58.228Z,76.96
2022-12-31T06:51:17.862Z,77.20
2022-12-31T06:53:29.791Z,77.04
2022-12-31T06:55:45.475Z,77.33
2022-12-31T06:57:57.985Z,77.13
2022-12-31T07:00:11.171Z,77.26
2022-12-31T07:02:49.881Z,77.16
2022-12-31T07:05:02.337Z,77.31
2022-12-31T07:07:34.906Z,77.28
2022-12-31T07:10:14.045Z,77.27
2022-12-31T07:12:48.391Z,77.32
2022-12-31T07:15:09.913Z,77.23
2022-12-31T07:17:33.951Z,77.41
2022-12-31T07:20:05.505Z,77.34
2022-12-31T07:22:17.500Z,77.51
2022-12-31T07:24:29.807Z,77.59
2022-12-31T07:27:11.696Z,77.64
2022-12-31T07:29:27.275Z,77.47
2022-12-31T07:32:00.572Z,77.40
2022-12-31T07:34:18.707Z,77.57
2022-12-31T07:37:02.460Z,77.48
2022-12-31T07:39:21.003Z,77.60
2022-12-31T07:41:45.079Z,77.52
2022-12-31T07:44:19.090Z,77.64
2022-12-31T07:46:36.154Z,77.71
2022-12-31T07:48:49.117Z,77.65
2022-12-31T07:51:01.417Z,77.61
2022-12-31T07:53:14.445Z,77.46
2022-12-31T07:55:26.302Z,77.42
2022-12-31T07:57:53.994Z,77.39
2022-12-31T08:00:11.823Z,77.54
2022-12-31T08:03:04.889Z,77.34
2022-12-31T08:05:25.886Z,77.20
2022-12-31T08:07:53.039Z,77.32
2022-12-31T08:10:17.312Z,77.46
2022-12-31T08:12:34.892Z,77.59
2022-12-31T08:14:48.411Z,77.85
2022-12-31T08:17:00.574Z,77.86
2022-12-31T08:19:32.517Z,78.17
2022-12-31T08:22:18.026Z,78.17
2022-12-31T08:24:59.910Z,78.63
2022-12-31T08:27:28.807Z,79.20
2022-12-31T08:30:03.227Z,79.34
2022-12-31T08:32:26.879Z,79.68
2022-12-31T08:34:50.968Z,79.90
2022-12-31T08:37:38.509Z,80.10
2022-12-31T08:40:07.184Z,80.29
2022-12-31T08:42:40.375Z,80.14
2022-12-31T08:45:09.776Z,80.41
2022-12-31T08:47:38.251Z,80.47
2022-12-31T08:49:50.562Z,80.31
2022-12-31T08:52:04.091Z,80.19
2022-12-31T08:54:16.699Z,80.28
2022-12-31T08:56:59.213Z,79.79
2022-12-31T08:59:46.228Z,79.62
2022-12-31T09:02:19.136Z,79.74
2022-12-31T09:05:16.980Z,79.57
2022-12-31T09:07:37.391Z,79.32
2022-12-31T09:10:46.711Z,79.35
2022-12-31T09:13:13.045Z,78.82
2022-12-31T09:15:42.465Z,78.73
2022-12-31T09:17:54.568Z,78.43
2022-12-31T09:20:14.013Z,78.03
2022-12-31T09:22:25.801Z,77.89
2022-12-31T09:24:38.209Z,77.38
2022-12-31T09:27:08.735Z,76.92
2022-12-31T09:29:39.678Z,76.72
2022-12-31T09:32:29.351Z,76.27
2022-12-31T09:35:11.782Z,75.99
2022-12-31T09:37:51.816Z,75.58
2022-12-31T09:40:28.694Z,75.32
2022-12-31T09:43:06.940Z,75.44
2022-12-31T09:45:31.110Z,75.29
2022-12-31T09:47:43.281Z,74.92
2022-12-31T09:50:34.394Z,75.14
2022-12-31T09:52:52.428Z,75.28
2022-12-31T09:55:08.008Z,75.23
2022-12-31T09:57:27.889Z,75.21
2022-12-31T09:59:43.550Z,75.40
2022-12-31T10:02:17.527Z,75.40
2022-12-31T10:04:42.783Z,75.31
2022-12-31T10:07:30.308Z,75.41
2022-12-31T10:10:30.638Z,75.39
2022-12-31T10:13:14.318Z,75.51
2022-12-31T10:15:54.945Z,75.17
2022-12-31T10:18:44.726Z,75.21
2022-12-31T10:21:34.620Z,75.05
2022-12-31T10:24:14.563Z,74.88
2022-12-31T10:26:52.901Z,75.25
2022-12-31T10:29:33.738Z,74.96
2022-12-31T10:32:13.717Z,74.47
2022-12-31T10:35:01.115Z,74.40
2022-12-31T10:37:19.048Z,74.04
2022-12-31T10:39:50.500Z,74.03
2022-12-31T10:42:25.228Z,73.51
2022-12-31T10:45:04.766Z,73.17
2022-12-31T10:47:49.327Z,72.94
2022-12-31T10:50:26.084Z,72.50
2022-12-31T10:52:59.909Z,72.05
2022-12-31T10:55:33.628Z,71.01
2022-12-31T10:58:03.831Z,70.61
2022-12-31T11:00:22.074Z,69.78
2022-12-31T11:02:41.145Z,69.31
2022-12-31T11:05:11.973Z,69.01
2022-12-31T11:07:42.194Z,68.85
2022-12-31T11:10:26.852Z,68.57
2022-12-31T11:12:53.799Z,67.85
2022-12-31T11:15:22.414Z,67.84
2022-12-31T11:17:46.971Z,67.23
2022-12-31T11:20:36.958Z,67.32
2022-12-31T11:23:09.742Z,67.26
2022-12-31T11:25:30.593Z,67.02
2022-12-31T11:28:10.900Z,67.47
2022-12-31T11:30:23.727Z,67.40
2022-12-31T11:32:51.996Z,67.56
2022-12-31T11:35:37.782Z,66.94
2022-12-31T11:38:11.482Z,65.61
2022-12-31T11:40:42.152Z,66.13
2022-12-31T11:43:16.327Z,65.96
2022-12-31T11:46:02.555Z,65.85
2022-12-31T11:48:33.003Z,66.23
2022-12-31T11:51:18.028Z,66.59
2022-12-31T11:54:13.127Z,66.33
2022-12-31T11:56:37.517Z,66.79
2022-12-31T11:58:52.479Z,66.78
2022-12-31T12:01:12.923Z,66.68
2022-12-31T12:03:25.664Z,66.69
2022-12-31T12:05:40.339Z,67.04
2022-12-31T12:07:53.479Z,66.72
2022-12-31T12:10:20.814Z,66.99
2022-12-31T12:12:42.645Z,67.18
2022-12-31T12:14:55.277Z,67.26
2022-12-31T12:17:13.800Z,67.47
2022-12-31T12:19:30.640Z,67.92
2022-12-31T12:21:47.790Z,67.69
2022-12-31T12:24:06.372Z,67.67
2022-12-31T12:26:26.178Z,67.73
2022-12-31T12:28:45.174Z,67.73
2022-12-31T12:31:03.595Z,67.83
2022-12-31T12:33:20.571Z,67.81
2022-12-31T12:35:34.909Z,67.93
2022-12-31T12:37:46.968Z,67.88
2022-12-31T12:40:02.288Z,68.03
2022-12-31T12:42:14.792Z,67.87
2022-12-31T12:44:26.372Z,67.84
2022-12-31T12:46:52.004Z,68.05
2022-12-31T12:49:04.412Z,68.11
2022-12-31T12:51:55.410Z,68.20
2022-12-31T12:54:25.520Z,68.50
2022-12-31T12:57:00.357Z,68.72
2022-12-31T12:59:24.631Z,68.70
2022-12-31T13:01:46.613Z,68.85
2022-12-31T13:06:56.999Z,69.23
2022-12-31T13:09:16.816Z,69.17
2022-12-31T13:11:28.721Z,69.28
2022-12-31T13:13:59.239Z,69.20
2022-12-31T13:16:14.240Z,69.15
2022-12-31T13:18:57.444Z,69.30
2022-12-31T13:21:18.669Z,68.73
2022-12-31T13:23:57.178Z,68.42
2022-12-31T13:26:24.368Z,68.06
2022-12-31T13:28:39.095Z,68.04
2022-12-31T13:31:01.767Z,67.87
2022-12-31T13:33:24.460Z,67.73
2022-12-31T13:35:44.750Z,67.97
2022-12-31T13:38:07.017Z,67.55
2022-12-31T13:40:30.654Z,67.53
2022-12-31T13:42:54.829Z,67.28
2022-12-31T13:45:16.989Z,67.73
2022-12-31T13:47:52.716Z,67.54
2022-12-31T13:50:29.399Z,67.34
2022-12-31T13:52:48.964Z,67.45
2022-12-31T13:55:09.795Z,67.28
2022-12-31T13:57:34.977Z,67.26
2022-12-31T13:59:51.876Z,67.37
2022-12-31T14:02:27.363Z,67.52
2022-12-31T14:04:46.928Z,67.35
2022-12-31T14:07:08.695Z,66.92
2022-12-31T14:09:25.627Z,66.90
2022-12-31T14:11:50.024Z,67.27
2022-12-31T14:14:18.799Z,67.05
2022-12-31T14:16:50.495Z,67.33
2022-12-31T14:19:14.667Z,67.08
2022-12-31T14:21:41.582Z,67.02
2022-12-31T14:24:13.850Z,66.59
2022-12-31T14:26:39.720Z,66.92
2022-12-31T14:29:04.186Z,66.82
2022-12-31T14:31:30.226Z,66.68
2022-12-31T14:33:58.091Z,66.48
2022-12-31T14:36:24.179Z,66.71
2022-12-31T14:38:51.745Z,66.41
2022-12-31T14:41:15.814Z,66.31
2022-12-31T14:44:12.970Z,66.37
2022-12-31T14:46:25.583Z,66.68
2022-12-31T14:48:56.515Z,66.56
2022-12-31T14:51:09.636Z,66.75
2022-12-31T14:53:26.955Z,66.73
2022-12-31T14:55:41.031Z,66.62
2022-12-31T15:00:36.730Z,66.77
2022-12-31T15:02:51.231Z,66.69
2022-12-31T15:05:14.236Z,66.99
2022-12-31T15:07:40.875Z,67.13
2022-12-31T15:10:21.744Z,66.86
2022-12-31T15:12:55.147Z,66.61
2022-12-31T15:15:33.258Z,66.91
2022-12-31T15:17:59.686Z,66.55
2022-12-31T15:20:18.064Z,66.59
2022-12-31T15:22:48.301Z,66.33
2022-12-31T15:25:01.187Z,66.44
2022-12-31T15:27:37.037Z,66.25
2022-12-31T15:29:49.117Z,66.41
2022-12-31T15:32:05.130Z,66.53
2022-12-31T15:34:30.450Z,66.67
2022-12-31T15:36:53.185Z,66.69
2022-12-31T15:39:10.272Z,66.59
2022-12-31T15:41:36.042Z,66.53
2022-12-31T15:43:55.360Z,66.26
2022-12-31T15:46:20.318Z,66.43
2022-12-31T15:48:43.617Z,66.42
2022-12-31T15:50:58.994Z,66.32
2022-12-31T15:53:27.375Z,66.70
2022-12-31T15:55:46.283Z,66.71
2022-12-31T15:58:06.412Z,66.74
2022-12-31T16:00:22.358Z,66.50
2022-12-31T16:02:43.249Z,66.57
2022-12-31T16:04:57.957Z,66.54
2022-12-31T16:07:12.527Z,66.73
2022-12-31T16:09:29.083Z,66.88
2022-12-31T16:11:42.403Z,66.74
2022-12-31T16:13:55.564Z,66.63
2022-12-31T16:16:26.190Z,66.76
2022-12-31T16:18:42.018Z,66.96
2022-12-31T16:20:54.495Z,67.09
2022-12-31T16:23:21.334Z,67.11
2022-12-31T16:25:34.140Z,67.32
2022-12-31T16:27:54.418Z,67.09
2022-12-31T16:30:24.287Z,67.24
2022-12-31T16:32:41.448Z,67.47
2022-12-31T16:34:56.539Z,67.45
2022-12-31T16:37:22.352Z,67.57
2022-12-31T16:39:37.933Z,67.46
2022-12-31T16:41:51.453Z,67.55
2022-12-31T16:44:04.683Z,67.65
2022-12-31T16:46:29.997Z,67.48
2022-12-31T16:48:48.611Z,67.78
2022-12-31T16:51:01.244Z,67.75
2022-12-31T16:53:17.962Z,67.62
2022-12-31T16:55:36.676Z,67.63
2022-12-31T16:57:58.819Z,67.52
2022-12-31T17:00:21.192Z,67.40
2022-12-31T17:02:39.642Z,67.43
2022-12-31T17:04:56.215Z,67.36
2022-12-31T17:07:42.538Z,67.50
2022-12-31T17:10:08.454Z,67.44
2022-12-31T17:12:24.020Z,67.62
2022-12-31T17:14:48.958Z,67.33
2022-12-31T17:17:07.071Z,67.30
2022-12-31T17:19:46.603Z,67.24
2022-12-31T17:21:59.310Z,67.28
2022-12-31T17:24:13.044Z,67.37
2022-12-31T17:26:37.716Z,67.36
2022-12-31T17:28:53.726Z,67.39
2022-12-31T17:31:25.388Z,67.30
2022-12-31T17:33:37.580Z,67.18
2022-12-31T17:35:55.617Z,67.12
2022-12-31T17:38:23.688Z,67.19
2022-12-31T17:40:54.664Z,67.29
2022-12-31T17:43:06.934Z,67.45
2022-12-31T17:45:21.764Z,67.42
2022-12-31T17:47:41.394Z,67.38
2022-12-31T17:49:54.499Z,67.53
2022-12-31T17:52:14.568Z,67.41
2022-12-31T17:54:26.359Z,67.63
2022-12-31T17:56:38.200Z,67.74
2022-12-31T17:58:52.409Z,67.84
2022-12-31T18:01:08.912Z,68.12
2022-12-31T18:03:20.991Z,67.93
2022-12-31T18:05:32.795Z,68.09
2022-12-31T18:07:44.572Z,68.31
2022-12-31T18:09:58.075Z,68.40
2022-12-31T18:12:14.104Z,68.54
2022-12-31T18:14:25.676Z,68.63
2022-12-31T18:16:37.705Z,68.69
2022-12-31T18:18:49.664Z,68.89
2022-12-31T18:21:04.629Z,68.98
2022-12-31T18:23:46.314Z,69.13
2022-12-31T18:25:58.421Z,68.98
2022-12-31T18:28:11.971Z,69.07
2022-12-31T18:30:24.047Z,69.38
2022-12-31T18:32:38.609Z,69.26
2022-12-31T18:34:51.592Z,69.35
2022-12-31T18:37:15.158Z,69.29
2022-12-31T18:39:31.377Z,69.26
2022-12-31T18:41:49.670Z,69.40
2022-12-31T18:44:01.569Z,69.35
2022-12-31T18:46:15.609Z,69.25
2022-12-31T18:48:27.754Z,69.38
2022-12-31T18:50:40.260Z,69.32
2022-12-31T18:52:52.156Z,69.33
2022-12-31T18:55:25.249Z,69.27
2022-12-31T18:57:37.099Z,69.30
2022-12-31T18:59:49.550Z,69.28
2022-12-31T19:02:03.032Z,69.08
2022-12-31T19:04:27.155Z,69.09
2022-12-31T19:06:46.619Z,69.01
2022-12-31T19:09:06.347Z,68.98
2022-12-31T19:11:36.015Z,68.92
2022-12-31T19:13:50.966Z,68.82
2022-12-31T19:16:05.195Z,68.70
2022-12-31T19:18:23.143Z,68.77
2022-12-31T19:20:40.135Z,68.80
2022-12-31T19:22:55.240Z,68.67
2022-12-31T19:25:38.849Z,68.71
2022-12-31T19:28:02.326Z,68.84
2022-12-31T19:30:27.471Z,68.52
2022-12-31T19:32:48.934Z,68.72
2022-12-31T19:35:00.829Z,68.58
2022-12-31T19:37:16.328Z,68.73
2022-12-31T19:39:30.386Z,68.71
2022-12-31T19:41:44.045Z,68.40
2022-12-31T19:43:56.804Z,68.45
2022-12-31T19:46:13.232Z,68.43
2022-12-31T19:48:32.369Z,68.39
2022-12-31T19:50:48.364Z,68.56
2022-12-31T19:53:00.961Z,68.40
2022-12-31T19:55:16.099Z,68.45
2022-12-31T19:57:28.535Z,68.47
2022-12-31T19:59:41.348Z,68.51
2022-12-31T20:02:03.316Z,68.49
2022-12-31T20:04:18.458Z,68.61
2022-12-31T20:06:33.031Z,68.52
2022-12-31T20:08:55.372Z,68.37
2022-12-31T20:11:14.210Z,68.26
2022-12-31T20:13:29.480Z,68.41
2022-12-31T20:15:48.467Z,68.53
2022-12-31T20:18:01.691Z,68.33
2022-12-31T20:20:17.362Z,68.40
2022-12-31T20:22:30.314Z,68.37
2022-12-31T20:24:43.785Z,68.26
2022-12-31T20:26:57.949Z,68.13
2022-12-31T20:29:12.730Z,68.21
2022-12-31T20:31:27.268Z,67.95
2022-12-31T20:33:41.993Z,67.93
2022-12-31T20:35:54.178Z,68.14
2022-12-31T20:38:07.795Z,68.14
2022-12-31T20:40:20.578Z,67.97
2022-12-31T20:42:33.767Z,67.97
2022-12-31T20:44:46.395Z,68.20
2022-12-31T20:46:59.605Z,68.07
2022-12-31T20:49:14.798Z,68.13
2022-12-31T20:51:30.365Z,67.99
2022-12-31T20:53:48.849Z,68.22
2022-12-31T20:56:10.121Z,68.07
2022-12-31T20:58:24.640Z,68.11
2022-12-31T21:00:37.693Z,68.22
2022-12-31T21:03:00.659Z,68.32
2022-12-31T21:05:19.204Z,68.25
2022-12-31T21:07:32.602Z,68.15
2022-12-31T21:09:47.089Z,68.07
2022-12-31T21:12:19.427Z,68.02
2022-12-31T21:14:32.275Z,67.97
2022-12-31T21:16:47.829Z,67.99
2022-12-31T21:19:01.571Z,68.11
2022-12-31T21:21:15.413Z,68.12
2022-12-31T21:23:29.133Z,68.30
2022-12-31T21:25:43.729Z,68.07
2022-12-31T21:27:56.899Z,68.15
2022-12-31T21:30:20.294Z,68.33
2022-12-31T21:32:34.447Z,68.13
2022-12-31T21:35:06.467Z,68.20
2022-12-31T21:37:19.394Z,68.34
2022-12-31T21:39:32.018Z,68.28
2022-12-31T21:41:53.739Z,68.21
2022-12-31T21:44:06.280Z,68.37
2022-12-31T21:46:19.900Z,68.23
2022-12-31T21:48:34.762Z,68.22
2022-12-31T21:50:56.685Z,68.27
2022-12-31T21:53:16.551Z,68.27
2022-12-31T21:55:50.500Z,68.40
2022-12-31T22:00:58.252Z,68.43
2022-12-31T22:03:25.852Z,68.47
2022-12-31T22:05:48.514Z,68.89
2022-12-31T22:08:01.935Z,68.70
2022-12-31T22:10:15.738Z,68.71
2022-12-31T22:12:28.379Z,68.80
2022-12-31T22:15:14.466Z,69.05
2022-12-31T22:17:16.475Z,69.03
2022-12-31T22:19:29.623Z,69.04
2022-12-31T22:21:43.577Z,69.31
2022-12-31T22:23:59.041Z,69.43
2022-12-31T22:26:16.568Z,69.43
2022-12-31T22:28:39.139Z,69.57
2022-12-31T22:30:54.109Z,69.72
2022-12-31T22:33:12.742Z,69.79
2022-12-31T22:35:26.757Z,69.78
2022-12-31T22:37:57.079Z,69.94
2022-12-31T22:40:14.996Z,70.15
2022-12-31T22:42:28.146Z,70.26
2022-12-31T22:44:40.441Z,70.36
2022-12-31T22:46:52.850Z,70.29
2022-12-31T22:49:12.515Z,70.48
2022-12-31T22:51:55.060Z,70.35
2022-12-31T22:54:01.295Z,70.48
2022-12-31T22:56:17.118Z,70.55
2022-12-31T22:58:33.977Z,70.38
2022-12-31T23:00:49.800Z,70.59
2022-12-31T23:03:03.064Z,70.68
2022-12-31T23:05:17.643Z,70.84
2022-12-31T23:07:30.888Z,70.87
2022-12-31T23:10:02.247Z,70.79
2022-12-31T23:12:15.022Z,70.71
2022-12-31T23:14:47.712Z,70.64
2022-12-31T23:17:29.835Z,70.89
2022-12-31T23:20:12.080Z,70.69
2022-12-31T23:22:49.815Z,70.69
2022-12-31T23:25:05.620Z,70.64
2022-12-31T23:27:19.333Z,70.72
2022-12-31T23:29:32.353Z,70.66
2022-12-31T23:31:44.479Z,70.62
2022-12-31T23:33:56.340Z,70.60
2022-12-31T23:36:08.789Z,70.70
2022-12-31T23:38:20.334Z,71.28
2022-12-31T23:40:35.403Z,70.93
2022-12-31T23:42:47.226Z,70.74
2022-12-31T23:44:58.784Z,70.24
2022-12-31T23:47:10.459Z,70.58
2022-12-31T23:49:23.129Z,70.03
2022-12-31T23:51:36.675Z,69.53
2022-12-31T23:53:48.694Z,69.87
2022-12-31T23:56:13.907Z,69.77
2022-12-31T23:58:28.157Z,69.71
